ADDS METAR Data INFO
IDs: Format: Raw Decoded Include TAF

Data at: 1323 UTC 11 Dec 2017

KMIA 111253Z 33006KT 10SM CLR 12/05 A3027 RMK AO2 SLP250 T01170050 $
KMIA 111153Z 33008KT 10SM CLR 11/05 A3026 RMK AO2 SLP248 T01110050 10128 20111 53007 $
KMIA 111053Z 34008KT 10SM CLR 11/05 A3026 RMK AO2 SLP246 T01110050 $
KMIA 110953Z 33006KT 10SM CLR 12/04 A3024 RMK AO2 SLP240 T01170044 $
KMIA 110853Z 32007KT 10SM CLR 12/04 A3024 RMK AO2 SLP241 T01220044 55005 $
KMIA 110753Z 32006KT 10SM CLR 12/05 A3023 RMK AO2 SLP238 T01220050 $
KMIA 110653Z 32007KT 10SM CLR 12/04 A3024 RMK AO2 SLP240 T01220044 $
KMIA 110553Z 31007KT 10SM CLR 13/05 A3026 RMK AO2 SLP246 T01280050 10139 20122 58010 $
KMIA 110453Z 32004KT 10SM CLR 13/05 A3027 RMK AO2 SLP250 T01280050 401780100 $
KMIA 110353Z 32005KT 10SM CLR 13/04 A3029 RMK AO2 SLP256 T01280044 $
KMIA 110253Z 33006KT 10SM CLR 13/04 A3029 RMK AO2 SLP256 T01280039 50008 $
KMIA 110153Z 32004KT 10SM CLR 13/05 A3029 RMK AO2 SLP256 T01330050 $
KMIA 110053Z 33006KT 10SM CLR 13/06 A3028 RMK AO2 SLP252 T01330056 $
KMIA 102353Z 32007KT 10SM CLR 14/06 A3026 RMK AO2 SLP248 T01390056 10178 20139 53014 $
KMIA 102253Z 34004KT 10SM FEW030 15/03 A3025 RMK AO2 SLP244 T01500028 $
KMIA 102153Z 35005KT 10SM FEW032 FEW250 17/02 A3024 RMK AO2 SLP238 T01670022 $
KMIA 102053Z 34008KT 10SM FEW035 FEW250 17/03 A3022 RMK AO2 SLP234 T01720028 53001 $
KMIA 101953Z 33007G15KT 10SM FEW035 FEW200 17/03 A3021 RMK AO2 SLP230 T01720028 $
KMIA 101853Z 33010G16KT 10SM FEW035 17/01 A3021 RMK AO2 SLP231 T01720011 $
KMIA 101753Z 32012KT 10SM FEW035 17/01 A3022 RMK AO2 SLP233 T01670011 10167 20100 58022 $
KMIA 101653Z 34011G17KT 10SM FEW035 FEW200 16/00 A3026 RMK AO2 SLP245 T01560000 $
KMIA 101553Z 33011G28KT 10SM FEW030 FEW200 14/00 A3029 RMK AO2 PK WND 01028/1548 SLP255 T01390000 $
KMIA 101453Z 33012G20KT 10SM FEW030 FEW200 13/01 A3029 RMK AO2 SLP255 T01330011 51021 $
KMIA 101353Z 33011G17KT 10SM FEW025 FEW150 12/02 A3028 RMK AO2 SLP252 T01170022 $
KMIA 101253Z 34011G20KT 10SM FEW025 FEW150 11/02 A3025 RMK AO2 SLP244 T01060017 $
KMIA 101153Z 33012G20KT 10SM CLR 10/03 A3023 RMK AO2 SLP235 70052 T01000033 10139 20100 53018 $
KMIA 101053Z 32010G18KT 10SM CLR 11/03 A3020 RMK AO2 SLP227 T01060033 $
KMIA 100953Z 32010G20KT 10SM CLR 11/03 A3018 RMK AO2 SLP221 T01110033 $
KMIA 100853Z 33015G22KT 10SM CLR 12/05 A3017 RMK AO2 SLP217 T01170050 53008 $
KMIA 100753Z 32012G18KT 10SM FEW025 FEW200 12/05 A3016 RMK AO2 SLP212 T01220050 $
KMIA 100653Z 33012G18KT 10SM FEW020 FEW030 SCT200 13/06 A3015 RMK AO2 SLP210 T01280061 $
KMIA 100553Z 32011G16KT 280V350 10SM FEW020 FEW030 SCT180 14/09 A3015 RMK AO2 SLP210 T01390089 10178 20139 51007 $
KMIA 100453Z 32009G18KT 10SM FEW020 FEW030 SCT150 15/10 A3015 RMK AO2 SLP209 T01500100 402670150 $
KMIA 100353Z 32009G19KT 10SM FEW016 FEW030 SCT150 16/11 A3015 RMK AO2 SLP208 T01610106 $
KMIA 100253Z 33010G17KT 10SM FEW015 OVC140 17/11 A3013 RMK AO2 SLP202 T01670106 53029 $
KMIA 100153Z 31011G17KT 10SM FEW015 OVC140 17/12 A3010 RMK AO2 SLP193 T01720117 $